General Aviation Weather

Text Reports

Enter one or more of the following location identifiers separated by a space:

Zip Code, Four-Character ICAO or Three-Character IATA airport codes.

METAR - Aviation Routine Weather Report
YPKG - Kalgoorlie-Boulder,
Updated at 10:00 PM GMT am 29. Januar 2015 (06:00 AWST):
METAR YPKG 292200Z AUTO 12010KT 9999 // NCD 23/03 Q1014
TAF - Terminal Area Forecast
YPKG - Kalgoorlie-Boulder,
Updated at 10:00 PM GMT am 29. Januar 2015 (06:00 AWST):
TAF YPKG 291710Z 2918/3018 11014KT CAVOK=
Decoded:
ID: YPKG   Kalgoorlie Boul, AU
REPORT TIME: 29 17: 0
INITIAL WX
   WEATHER: NIL
   COMMENTS: = 

PIREP - Pilot Weather Report
YPKG - Kalgoorlie-Boulder,
Updated at 10:00 PM GMT am 29. Januar 2015 (06:00 AWST):
No PIREP is currently available for this location.
AIRMET - Airmens Meteorological Information
YPKG - Kalgoorlie-Boulder,
Updated at 10:00 PM GMT am 29. Januar 2015 (06:00 AWST):
No AIRMET is currently available for this location.
SIGMET - Significant Meteorological Information
YPKG - Kalgoorlie-Boulder,
Updated at 10:00 PM GMT am 29. Januar 2015 (06:00 AWST):
No SIGMET is currently available for this location.
NOTAM - Notice to Airmen
YPKG - Kalgoorlie-Boulder,
Updated at 10:00 PM GMT am 29. Januar 2015 (06:00 AWST):
No NOTAM is currently available for this location.
Forecast Area
YPKG - Kalgoorlie-Boulder,
Updated at 10:00 PM GMT am 29. Januar 2015 (06:00 AWST):
No NOTAM is currently available for this location.
Aviation Weather Maps